sensor_id;sensor_type;location;lat;lon;timestamp;P1;durP1;ratioP1;P2;durP2;ratioP2
10144;SDS011;5113;41.822;23.564;2022-11-04T00:00:24;11.53;;;6.47;;
10144;SDS011;5113;41.822;23.564;2022-11-04T00:03:34;7.73;;;6.17;;
10144;SDS011;5113;41.822;23.564;2022-11-04T00:06:58;10.43;;;6.70;;
10144;SDS011;5113;41.822;23.564;2022-11-04T00:10:05;12.70;;;6.80;;
10144;SDS011;5113;41.822;23.564;2022-11-04T00:13:12;8.20;;;5.40;;
10144;SDS011;5113;41.822;23.564;2022-11-04T00:16:17;18.97;;;6.33;;
10144;SDS011;5113;41.822;23.564;2022-11-04T00:19:42;12.00;;;6.17;;
10144;SDS011;5113;41.822;23.564;2022-11-04T00:23:06;6.77;;;4.40;;
10144;SDS011;5113;41.822;23.564;2022-11-04T00:26:29;8.43;;;5.43;;
10144;SDS011;5113;41.822;23.564;2022-11-04T00:29:53;11.43;;;5.43;;
10144;SDS011;5113;41.822;23.564;2022-11-04T00:32:59;11.47;;;5.83;;
10144;SDS011;5113;41.822;23.564;2022-11-04T00:36:24;16.60;;;7.83;;
10144;SDS011;5113;41.822;23.564;2022-11-04T00:39:31;43.50;;;19.47;;
10144;SDS011;5113;41.822;23.564;2022-11-04T00:42:37;22.93;;;11.73;;
10144;SDS011;5113;41.822;23.564;2022-11-04T00:45:43;8.77;;;5.63;;
10144;SDS011;5113;41.822;23.564;2022-11-04T00:48:49;17.10;;;5.97;;
10144;SDS011;5113;41.822;23.564;2022-11-04T00:51:57;7.30;;;6.13;;
10144;SDS011;5113;41.822;23.564;2022-11-04T00:55:04;7.33;;;5.00;;
10144;SDS011;5113;41.822;23.564;2022-11-04T00:58:11;4.63;;;4.23;;
10144;SDS011;5113;41.822;23.564;2022-11-04T01:01:17;6.67;;;4.57;;
10144;SDS011;5113;41.822;23.564;2022-11-04T01:04:24;7.17;;;4.67;;
10144;SDS011;5113;41.822;23.564;2022-11-04T01:07:31;11.83;;;5.33;;
10144;SDS011;5113;41.822;23.564;2022-11-04T01:10:44;7.23;;;5.60;;
10144;SDS011;5113;41.822;23.564;2022-11-04T01:13:50;7.13;;;5.47;;
10144;SDS011;5113;41.822;23.564;2022-11-04T01:16:56;6.67;;;4.53;;
10144;SDS011;5113;41.822;23.564;2022-11-04T01:20:03;8.10;;;5.63;;
10144;SDS011;5113;41.822;23.564;2022-11-04T01:23:11;7.00;;;4.53;;
10144;SDS011;5113;41.822;23.564;2022-11-04T01:26:18;5.97;;;5.10;;
10144;SDS011;5113;41.822;23.564;2022-11-04T01:29:26;8.23;;;6.50;;
10144;SDS011;5113;41.822;23.564;2022-11-04T01:32:33;10.03;;;6.67;;
10144;SDS011;5113;41.822;23.564;2022-11-04T01:35:39;10.87;;;5.57;;
10144;SDS011;5113;41.822;23.564;2022-11-04T01:38:46;10.93;;;6.73;;
10144;SDS011;5113;41.822;23.564;2022-11-04T01:41:53;12.57;;;6.77;;
10144;SDS011;5113;41.822;23.564;2022-11-04T01:45:00;13.10;;;8.53;;
10144;SDS011;5113;41.822;23.564;2022-11-04T01:48:08;12.03;;;7.33;;
10144;SDS011;5113;41.822;23.564;2022-11-04T01:51:22;9.67;;;5.53;;
10144;SDS011;5113;41.822;23.564;2022-11-04T01:54:30;7.37;;;5.00;;
10144;SDS011;5113;41.822;23.564;2022-11-04T01:57:38;12.27;;;6.90;;
10144;SDS011;5113;41.822;23.564;2022-11-04T02:00:46;9.00;;;6.27;;
10144;SDS011;5113;41.822;23.564;2022-11-04T02:03:53;8.00;;;6.20;;
10144;SDS011;5113;41.822;23.564;2022-11-04T02:07:23;8.63;;;5.10;;
10144;SDS011;5113;41.822;23.564;2022-11-04T02:10:31;7.83;;;7.10;;
10144;SDS011;5113;41.822;23.564;2022-11-04T02:13:37;10.50;;;7.47;;
10144;SDS011;5113;41.822;23.564;2022-11-04T02:16:43;12.47;;;7.20;;
10144;SDS011;5113;41.822;23.564;2022-11-04T02:19:58;14.03;;;7.73;;
10144;SDS011;5113;41.822;23.564;2022-11-04T02:23:22;11.50;;;7.73;;
10144;SDS011;5113;41.822;23.564;2022-11-04T02:26:47;12.87;;;7.87;;
10144;SDS011;5113;41.822;23.564;2022-11-04T02:30:23;17.23;;;12.80;;
10144;SDS011;5113;41.822;23.564;2022-11-04T02:33:30;16.00;;;13.47;;
10144;SDS011;5113;41.822;23.564;2022-11-04T02:36:43;18.17;;;12.33;;
10144;SDS011;5113;41.822;23.564;2022-11-04T02:40:01;16.53;;;10.67;;
10144;SDS011;5113;41.822;23.564;2022-11-04T02:43:15;11.70;;;7.93;;
10144;SDS011;5113;41.822;23.564;2022-11-04T02:46:31;14.37;;;6.23;;
10144;SDS011;5113;41.822;23.564;2022-11-04T02:49:44;15.77;;;7.23;;
10144;SDS011;5113;41.822;23.564;2022-11-04T02:52:56;13.23;;;8.33;;
10144;SDS011;5113;41.822;23.564;2022-11-04T02:56:06;11.73;;;6.90;;
10144;SDS011;5113;41.822;23.564;2022-11-04T02:59:16;14.20;;;7.20;;
10144;SDS011;5113;41.822;23.564;2022-11-04T03:02:27;13.40;;;7.13;;
10144;SDS011;5113;41.822;23.564;2022-11-04T03:05:39;12.00;;;7.67;;
10144;SDS011;5113;41.822;23.564;2022-11-04T03:08:50;9.07;;;6.27;;
10144;SDS011;5113;41.822;23.564;2022-11-04T03:11:59;17.67;;;9.07;;
10144;SDS011;5113;41.822;23.564;2022-11-04T03:15:08;13.27;;;6.17;;
10144;SDS011;5113;41.822;23.564;2022-11-04T03:18:22;9.20;;;6.90;;
10144;SDS011;5113;41.822;23.564;2022-11-04T03:21:36;27.00;;;15.33;;
10144;SDS011;5113;41.822;23.564;2022-11-04T03:24:46;14.03;;;8.27;;
10144;SDS011;5113;41.822;23.564;2022-11-04T03:27:55;13.40;;;7.80;;
10144;SDS011;5113;41.822;23.564;2022-11-04T03:31:07;10.37;;;7.60;;
10144;SDS011;5113;41.822;23.564;2022-11-04T03:34:19;13.87;;;9.53;;
10144;SDS011;5113;41.822;23.564;2022-11-04T03:37:25;13.40;;;8.97;;
10144;SDS011;5113;41.822;23.564;2022-11-04T03:40:31;11.83;;;6.93;;
10144;SDS011;5113;41.822;23.564;2022-11-04T03:43:38;14.13;;;8.67;;
10144;SDS011;5113;41.822;23.564;2022-11-04T03:46:46;17.97;;;8.73;;
10144;SDS011;5113;41.822;23.564;2022-11-04T03:49:56;13.83;;;7.87;;
10144;SDS011;5113;41.822;23.564;2022-11-04T03:53:10;16.40;;;7.67;;
10144;SDS011;5113;41.822;23.564;2022-11-04T03:56:37;18.13;;;8.70;;
10144;SDS011;5113;41.822;23.564;2022-11-04T04:00:08;16.73;;;9.60;;
10144;SDS011;5113;41.822;23.564;2022-11-04T04:03:17;13.03;;;10.00;;
10144;SDS011;5113;41.822;23.564;2022-11-04T04:06:32;72.43;;;30.47;;
10144;SDS011;5113;41.822;23.564;2022-11-04T04:09:41;23.47;;;13.50;;
10144;SDS011;5113;41.822;23.564;2022-11-04T04:12:50;22.17;;;9.70;;
10144;SDS011;5113;41.822;23.564;2022-11-04T04:16:02;16.20;;;9.17;;
10144;SDS011;5113;41.822;23.564;2022-11-04T04:19:12;14.03;;;9.40;;
10144;SDS011;5113;41.822;23.564;2022-11-04T04:22:24;38.57;;;16.00;;
10144;SDS011;5113;41.822;23.564;2022-11-04T04:25:33;24.37;;;16.03;;
10144;SDS011;5113;41.822;23.564;2022-11-04T04:29:09;57.30;;;26.23;;
10144;SDS011;5113;41.822;23.564;2022-11-04T04:32:16;32.33;;;21.00;;
10144;SDS011;5113;41.822;23.564;2022-11-04T04:35:25;32.07;;;16.30;;
10144;SDS011;5113;41.822;23.564;2022-11-04T04:38:49;28.37;;;15.77;;
10144;SDS011;5113;41.822;23.564;2022-11-04T04:42:13;32.33;;;15.80;;
10144;SDS011;5113;41.822;23.564;2022-11-04T04:45:37;22.10;;;13.93;;
10144;SDS011;5113;41.822;23.564;2022-11-04T04:48:46;27.43;;;13.77;;
10144;SDS011;5113;41.822;23.564;2022-11-04T04:51:52;17.60;;;11.53;;
10144;SDS011;5113;41.822;23.564;2022-11-04T04:55:00;22.70;;;11.57;;
10144;SDS011;5113;41.822;23.564;2022-11-04T04:58:07;17.70;;;11.93;;
10144;SDS011;5113;41.822;23.564;2022-11-04T05:01:13;23.67;;;10.50;;
10144;SDS011;5113;41.822;23.564;2022-11-04T05:04:20;19.37;;;11.20;;
10144;SDS011;5113;41.822;23.564;2022-11-04T05:07:26;32.50;;;17.50;;
10144;SDS011;5113;41.822;23.564;2022-11-04T05:10:33;26.80;;;14.57;;
10144;SDS011;5113;41.822;23.564;2022-11-04T05:13:40;33.70;;;15.23;;
10144;SDS011;5113;41.822;23.564;2022-11-04T05:16:46;36.07;;;17.70;;
10144;SDS011;5113;41.822;23.564;2022-11-04T05:19:52;37.53;;;15.50;;
10144;SDS011;5113;41.822;23.564;2022-11-04T05:22:58;26.00;;;15.33;;
10144;SDS011;5113;41.822;23.564;2022-11-04T05:26:06;18.33;;;12.57;;
10144;SDS011;5113;41.822;23.564;2022-11-04T05:29:13;23.67;;;13.13;;
10144;SDS011;5113;41.822;23.564;2022-11-04T05:32:23;36.73;;;17.77;;
10144;SDS011;5113;41.822;23.564;2022-11-04T05:35:30;42.37;;;21.37;;
10144;SDS011;5113;41.822;23.564;2022-11-04T05:38:36;30.47;;;16.60;;
10144;SDS011;5113;41.822;23.564;2022-11-04T05:41:44;30.53;;;18.60;;
10144;SDS011;5113;41.822;23.564;2022-11-04T05:44:50;18.63;;;14.37;;
10144;SDS011;5113;41.822;23.564;2022-11-04T05:47:57;28.03;;;17.37;;
10144;SDS011;5113;41.822;23.564;2022-11-04T05:51:03;32.83;;;18.77;;
10144;SDS011;5113;41.822;23.564;2022-11-04T05:54:10;24.30;;;13.83;;
10144;SDS011;5113;41.822;23.564;2022-11-04T05:57:18;15.70;;;10.47;;
10144;SDS011;5113;41.822;23.564;2022-11-04T06:00:24;24.30;;;12.93;;
10144;SDS011;5113;41.822;23.564;2022-11-04T06:03:31;24.20;;;14.43;;
10144;SDS011;5113;41.822;23.564;2022-11-04T06:06:37;23.43;;;11.53;;
10144;SDS011;5113;41.822;23.564;2022-11-04T06:09:43;15.67;;;10.30;;
10144;SDS011;5113;41.822;23.564;2022-11-04T06:12:50;24.50;;;10.27;;
10144;SDS011;5113;41.822;23.564;2022-11-04T06:15:56;19.77;;;11.70;;
10144;SDS011;5113;41.822;23.564;2022-11-04T06:19:02;37.63;;;15.83;;
10144;SDS011;5113;41.822;23.564;2022-11-04T06:22:13;32.73;;;18.23;;
10144;SDS011;5113;41.822;23.564;2022-11-04T06:25:20;54.63;;;28.13;;
10144;SDS011;5113;41.822;23.564;2022-11-04T06:28:27;57.20;;;32.10;;
10144;SDS011;5113;41.822;23.564;2022-11-04T06:31:34;34.27;;;19.97;;
10144;SDS011;5113;41.822;23.564;2022-11-04T06:34:40;20.90;;;14.60;;
10144;SDS011;5113;41.822;23.564;2022-11-04T06:37:47;19.10;;;12.77;;
10144;SDS011;5113;41.822;23.564;2022-11-04T06:40:53;31.37;;;15.00;;
10144;SDS011;5113;41.822;23.564;2022-11-04T06:44:01;18.87;;;10.73;;
10144;SDS011;5113;41.822;23.564;2022-11-04T06:47:07;22.27;;;14.00;;
10144;SDS011;5113;41.822;23.564;2022-11-04T06:50:14;21.90;;;11.97;;
10144;SDS011;5113;41.822;23.564;2022-11-04T06:53:20;21.63;;;12.50;;
10144;SDS011;5113;41.822;23.564;2022-11-04T06:56:26;18.03;;;13.10;;
10144;SDS011;5113;41.822;23.564;2022-11-04T06:59:34;22.30;;;11.90;;
10144;SDS011;5113;41.822;23.564;2022-11-04T07:02:40;19.77;;;12.00;;
10144;SDS011;5113;41.822;23.564;2022-11-04T07:05:47;30.30;;;13.90;;
10144;SDS011;5113;41.822;23.564;2022-11-04T07:08:55;35.50;;;16.80;;
10144;SDS011;5113;41.822;23.564;2022-11-04T07:12:02;30.43;;;15.50;;
10144;SDS011;5113;41.822;23.564;2022-11-04T07:15:11;27.57;;;10.97;;
10144;SDS011;5113;41.822;23.564;2022-11-04T07:18:17;23.53;;;12.47;;
10144;SDS011;5113;41.822;23.564;2022-11-04T07:21:24;29.57;;;13.40;;
10144;SDS011;5113;41.822;23.564;2022-11-04T07:24:30;15.30;;;11.30;;
10144;SDS011;5113;41.822;23.564;2022-11-04T07:27:36;17.97;;;12.43;;
10144;SDS011;5113;41.822;23.564;2022-11-04T07:30:44;31.03;;;15.33;;
10144;SDS011;5113;41.822;23.564;2022-11-04T07:33:50;29.37;;;16.47;;
10144;SDS011;5113;41.822;23.564;2022-11-04T07:36:56;27.53;;;12.70;;
10144;SDS011;5113;41.822;23.564;2022-11-04T07:40:02;32.93;;;12.37;;
10144;SDS011;5113;41.822;23.564;2022-11-04T07:43:09;13.10;;;9.03;;
10144;SDS011;5113;41.822;23.564;2022-11-04T07:46:17;15.23;;;8.70;;
10144;SDS011;5113;41.822;23.564;2022-11-04T07:49:24;13.70;;;8.40;;
10144;SDS011;5113;41.822;23.564;2022-11-04T07:52:30;19.47;;;10.00;;
10144;SDS011;5113;41.822;23.564;2022-11-04T07:55:36;29.50;;;12.27;;
10144;SDS011;5113;41.822;23.564;2022-11-04T07:58:46;17.37;;;9.57;;
10144;SDS011;5113;41.822;23.564;2022-11-04T08:01:54;15.30;;;8.70;;
10144;SDS011;5113;41.822;23.564;2022-11-04T08:05:00;16.17;;;10.27;;
10144;SDS011;5113;41.822;23.564;2022-11-04T08:08:07;19.00;;;12.00;;
10144;SDS011;5113;41.822;23.564;2022-11-04T08:11:14;20.00;;;11.13;;
10144;SDS011;5113;41.822;23.564;2022-11-04T08:14:22;19.87;;;11.17;;
10144;SDS011;5113;41.822;23.564;2022-11-04T08:17:30;16.93;;;9.27;;
10144;SDS011;5113;41.822;23.564;2022-11-04T08:20:36;14.97;;;10.53;;
10144;SDS011;5113;41.822;23.564;2022-11-04T08:23:42;14.50;;;8.57;;
10144;SDS011;5113;41.822;23.564;2022-11-04T08:26:49;14.33;;;7.73;;
10144;SDS011;5113;41.822;23.564;2022-11-04T08:29:56;16.17;;;6.37;;
10144;SDS011;5113;41.822;23.564;2022-11-04T08:33:03;7.73;;;5.93;;
10144;SDS011;5113;41.822;23.564;2022-11-04T08:36:11;9.97;;;7.40;;
10144;SDS011;5113;41.822;23.564;2022-11-04T08:39:19;12.90;;;7.80;;
10144;SDS011;5113;41.822;23.564;2022-11-04T08:42:25;12.40;;;7.20;;
10144;SDS011;5113;41.822;23.564;2022-11-04T08:45:31;11.00;;;6.77;;
10144;SDS011;5113;41.822;23.564;2022-11-04T08:48:39;8.47;;;6.60;;
10144;SDS011;5113;41.822;23.564;2022-11-04T08:51:45;16.13;;;7.57;;
10144;SDS011;5113;41.822;23.564;2022-11-04T08:54:53;13.83;;;6.57;;
10144;SDS011;5113;41.822;23.564;2022-11-04T08:58:01;10.17;;;6.83;;
10144;SDS011;5113;41.822;23.564;2022-11-04T09:01:07;6.27;;;5.23;;
10144;SDS011;5113;41.822;23.564;2022-11-04T09:04:17;9.00;;;6.10;;
10144;SDS011;5113;41.822;23.564;2022-11-04T09:07:24;11.17;;;6.50;;
10144;SDS011;5113;41.822;23.564;2022-11-04T09:10:30;12.43;;;6.97;;
10144;SDS011;5113;41.822;23.564;2022-11-04T09:13:36;11.00;;;7.00;;
10144;SDS011;5113;41.822;23.564;2022-11-04T09:16:43;7.87;;;7.00;;
10144;SDS011;5113;41.822;23.564;2022-11-04T09:19:50;12.87;;;7.03;;
10144;SDS011;5113;41.822;23.564;2022-11-04T09:22:56;7.10;;;5.60;;
10144;SDS011;5113;41.822;23.564;2022-11-04T09:26:04;11.53;;;6.87;;
10144;SDS011;5113;41.822;23.564;2022-11-04T09:29:12;13.03;;;6.23;;
10144;SDS011;5113;41.822;23.564;2022-11-04T09:32:18;14.53;;;6.67;;
10144;SDS011;5113;41.822;23.564;2022-11-04T09:35:25;9.33;;;6.50;;
10144;SDS011;5113;41.822;23.564;2022-11-04T09:38:31;10.87;;;6.17;;
10144;SDS011;5113;41.822;23.564;2022-11-04T09:41:45;8.73;;;6.30;;
10144;SDS011;5113;41.822;23.564;2022-11-04T09:45:16;11.63;;;7.03;;
10144;SDS011;5113;41.822;23.564;2022-11-04T09:48:26;16.10;;;6.67;;
10144;SDS011;5113;41.822;23.564;2022-11-04T09:51:38;13.23;;;8.23;;
10144;SDS011;5113;41.822;23.564;2022-11-04T09:55:02;13.03;;;8.03;;
10144;SDS011;5113;41.822;23.564;2022-11-04T09:58:16;14.13;;;7.13;;
10144;SDS011;5113;41.822;23.564;2022-11-04T10:01:24;11.97;;;7.67;;
10144;SDS011;5113;41.822;23.564;2022-11-04T10:04:39;10.43;;;6.57;;
10144;SDS011;5113;41.822;23.564;2022-11-04T10:07:59;11.17;;;6.30;;
10144;SDS011;5113;41.822;23.564;2022-11-04T10:11:23;9.47;;;6.77;;
10144;SDS011;5113;41.822;23.564;2022-11-04T10:14:45;19.23;;;7.23;;
10144;SDS011;5113;41.822;23.564;2022-11-04T10:18:16;19.53;;;7.73;;
10144;SDS011;5113;41.822;23.564;2022-11-04T10:21:34;11.20;;;6.63;;
10144;SDS011;5113;41.822;23.564;2022-11-04T10:24:54;7.70;;;6.27;;
10144;SDS011;5113;41.822;23.564;2022-11-04T10:28:08;12.90;;;7.30;;
10144;SDS011;5113;41.822;23.564;2022-11-04T10:31:18;10.23;;;6.93;;
10144;SDS011;5113;41.822;23.564;2022-11-04T10:34:26;14.20;;;7.57;;
10144;SDS011;5113;41.822;23.564;2022-11-04T10:37:37;13.63;;;6.50;;
10144;SDS011;5113;41.822;23.564;2022-11-04T10:40:46;14.67;;;7.57;;
10144;SDS011;5113;41.822;23.564;2022-11-04T10:43:55;21.10;;;8.47;;
10144;SDS011;5113;41.822;23.564;2022-11-04T10:47:07;18.70;;;7.93;;
10144;SDS011;5113;41.822;23.564;2022-11-04T10:50:29;8.67;;;5.90;;
10144;SDS011;5113;41.822;23.564;2022-11-04T10:53:42;8.23;;;5.80;;
10144;SDS011;5113;41.822;23.564;2022-11-04T10:56:50;7.80;;;5.67;;
10144;SDS011;5113;41.822;23.564;2022-11-04T10:59:58;12.97;;;6.87;;
10144;SDS011;5113;41.822;23.564;2022-11-04T11:06:35;9.53;;;6.30;;
10144;SDS011;5113;41.822;23.564;2022-11-04T11:09:47;13.53;;;6.37;;
10144;SDS011;5113;41.822;23.564;2022-11-04T11:13:00;9.87;;;5.80;;
10144;SDS011;5113;41.822;23.564;2022-11-04T11:16:09;10.03;;;6.10;;
10144;SDS011;5113;41.822;23.564;2022-11-04T11:19:19;11.93;;;6.87;;
10144;SDS011;5113;41.822;23.564;2022-11-04T11:22:27;9.33;;;5.57;;
10144;SDS011;5113;41.822;23.564;2022-11-04T11:25:36;12.63;;;5.90;;
10144;SDS011;5113;41.822;23.564;2022-11-04T11:28:50;10.10;;;6.13;;
10144;SDS011;5113;41.822;23.564;2022-11-04T11:32:02;9.87;;;5.40;;
10144;SDS011;5113;41.822;23.564;2022-11-04T11:35:13;12.07;;;6.10;;
10144;SDS011;5113;41.822;23.564;2022-11-04T11:38:21;19.43;;;5.90;;
10144;SDS011;5113;41.822;23.564;2022-11-04T11:41:31;7.73;;;5.60;;
10144;SDS011;5113;41.822;23.564;2022-11-04T11:44:49;9.73;;;5.10;;
10144;SDS011;5113;41.822;23.564;2022-11-04T11:47:57;5.83;;;5.20;;
10144;SDS011;5113;41.822;23.564;2022-11-04T11:51:04;6.50;;;5.03;;
10144;SDS011;5113;41.822;23.564;2022-11-04T11:54:26;9.67;;;5.60;;
10144;SDS011;5113;41.822;23.564;2022-11-04T11:57:43;9.90;;;4.73;;
10144;SDS011;5113;41.822;23.564;2022-11-04T12:01:18;9.93;;;5.50;;
10144;SDS011;5113;41.822;23.564;2022-11-04T12:04:31;9.90;;;5.50;;
10144;SDS011;5113;41.822;23.564;2022-11-04T12:08:00;7.10;;;5.23;;
10144;SDS011;5113;41.822;23.564;2022-11-04T12:11:44;9.40;;;4.97;;
10144;SDS011;5113;41.822;23.564;2022-11-04T12:15:03;12.27;;;5.87;;
10144;SDS011;5113;41.822;23.564;2022-11-04T12:18:31;6.37;;;4.93;;
10144;SDS011;5113;41.822;23.564;2022-11-04T12:21:48;12.00;;;4.93;;
10144;SDS011;5113;41.822;23.564;2022-11-04T12:25:05;9.37;;;4.80;;
10144;SDS011;5113;41.822;23.564;2022-11-04T12:28:24;6.80;;;4.90;;
10144;SDS011;5113;41.822;23.564;2022-11-04T12:31:38;9.37;;;5.60;;
10144;SDS011;5113;41.822;23.564;2022-11-04T12:34:56;10.27;;;4.90;;
10144;SDS011;5113;41.822;23.564;2022-11-04T12:38:19;15.27;;;5.03;;
10144;SDS011;5113;41.822;23.564;2022-11-04T12:41:36;9.23;;;5.13;;
10144;SDS011;5113;41.822;23.564;2022-11-04T12:45:18;12.23;;;5.50;;
10144;SDS011;5113;41.822;23.564;2022-11-04T12:52:17;7.23;;;4.47;;
10144;SDS011;5113;41.822;23.564;2022-11-04T12:55:38;13.13;;;5.37;;
10144;SDS011;5113;41.822;23.564;2022-11-04T13:02:38;15.53;;;5.27;;
10144;SDS011;5113;41.822;23.564;2022-11-04T13:05:49;11.20;;;5.80;;
10144;SDS011;5113;41.822;23.564;2022-11-04T13:09:00;9.70;;;4.67;;
10144;SDS011;5113;41.822;23.564;2022-11-04T13:12:10;7.87;;;4.87;;
10144;SDS011;5113;41.822;23.564;2022-11-04T13:15:22;11.27;;;4.93;;
10144;SDS011;5113;41.822;23.564;2022-11-04T13:18:32;4.73;;;4.33;;
10144;SDS011;5113;41.822;23.564;2022-11-04T13:21:41;5.63;;;4.60;;
10144;SDS011;5113;41.822;23.564;2022-11-04T13:24:50;5.13;;;4.43;;
10144;SDS011;5113;41.822;23.564;2022-11-04T13:28:00;6.23;;;4.53;;
10144;SDS011;5113;41.822;23.564;2022-11-04T13:31:09;7.93;;;4.57;;
10144;SDS011;5113;41.822;23.564;2022-11-04T13:34:23;6.40;;;4.33;;
10144;SDS011;5113;41.822;23.564;2022-11-04T13:37:39;6.67;;;5.07;;
10144;SDS011;5113;41.822;23.564;2022-11-04T13:40:57;10.13;;;5.00;;
10144;SDS011;5113;41.822;23.564;2022-11-04T13:44:23;10.53;;;4.50;;
10144;SDS011;5113;41.822;23.564;2022-11-04T13:47:34;9.83;;;5.73;;
10144;SDS011;5113;41.822;23.564;2022-11-04T13:50:41;10.57;;;5.60;;
10144;SDS011;5113;41.822;23.564;2022-11-04T13:53:50;6.53;;;4.93;;
10144;SDS011;5113;41.822;23.564;2022-11-04T13:57:09;8.10;;;4.93;;
10144;SDS011;5113;41.822;23.564;2022-11-04T14:00:21;8.97;;;5.60;;
10144;SDS011;5113;41.822;23.564;2022-11-04T14:03:38;8.10;;;4.73;;
10144;SDS011;5113;41.822;23.564;2022-11-04T14:06:57;16.17;;;8.50;;
10144;SDS011;5113;41.822;23.564;2022-11-04T14:10:34;14.43;;;5.80;;
10144;SDS011;5113;41.822;23.564;2022-11-04T14:14:12;10.47;;;5.30;;
10144;SDS011;5113;41.822;23.564;2022-11-04T14:21:05;27.17;;;10.50;;
10144;SDS011;5113;41.822;23.564;2022-11-04T14:24:13;20.87;;;13.40;;
10144;SDS011;5113;41.822;23.564;2022-11-04T14:27:25;26.37;;;12.67;;
10144;SDS011;5113;41.822;23.564;2022-11-04T14:30:42;26.03;;;15.17;;
10144;SDS011;5113;41.822;23.564;2022-11-04T14:33:53;30.17;;;17.03;;
10144;SDS011;5113;41.822;23.564;2022-11-04T14:37:01;22.67;;;13.53;;
10144;SDS011;5113;41.822;23.564;2022-11-04T14:40:22;22.73;;;14.27;;
10144;SDS011;5113;41.822;23.564;2022-11-04T14:43:30;26.37;;;15.03;;
10144;SDS011;5113;41.822;23.564;2022-11-04T14:46:41;22.57;;;15.67;;
10144;SDS011;5113;41.822;23.564;2022-11-04T14:49:50;25.57;;;13.47;;
10144;SDS011;5113;41.822;23.564;2022-11-04T14:53:04;31.43;;;15.00;;
10144;SDS011;5113;41.822;23.564;2022-11-04T14:56:20;22.23;;;11.67;;
10144;SDS011;5113;41.822;23.564;2022-11-04T14:59:28;28.80;;;14.80;;
10144;SDS011;5113;41.822;23.564;2022-11-04T15:02:36;55.63;;;27.00;;
10144;SDS011;5113;41.822;23.564;2022-11-04T15:05:45;41.33;;;18.60;;
10144;SDS011;5113;41.822;23.564;2022-11-04T15:08:54;102.17;;;42.63;;
10144;SDS011;5113;41.822;23.564;2022-11-04T15:12:05;62.67;;;28.37;;
10144;SDS011;5113;41.822;23.564;2022-11-04T15:15:34;496.97;;;164.80;;
10144;SDS011;5113;41.822;23.564;2022-11-04T15:18:44;149.20;;;49.83;;
10144;SDS011;5113;41.822;23.564;2022-11-04T15:21:51;74.33;;;32.27;;
10144;SDS011;5113;41.822;23.564;2022-11-04T15:24:57;146.43;;;49.10;;
10144;SDS011;5113;41.822;23.564;2022-11-04T15:28:12;165.17;;;59.67;;
10144;SDS011;5113;41.822;23.564;2022-11-04T15:31:23;191.40;;;69.07;;
10144;SDS011;5113;41.822;23.564;2022-11-04T15:34:32;356.03;;;128.07;;
10144;SDS011;5113;41.822;23.564;2022-11-04T15:37:40;314.20;;;111.87;;
10144;SDS011;5113;41.822;23.564;2022-11-04T15:40:48;380.17;;;141.33;;
10144;SDS011;5113;41.822;23.564;2022-11-04T15:43:55;356.33;;;132.53;;
10144;SDS011;5113;41.822;23.564;2022-11-04T15:47:01;315.73;;;118.27;;
10144;SDS011;5113;41.822;23.564;2022-11-04T15:50:26;198.00;;;85.87;;
10144;SDS011;5113;41.822;23.564;2022-11-04T15:53:36;204.47;;;77.17;;
10144;SDS011;5113;41.822;23.564;2022-11-04T15:56:52;150.10;;;58.57;;
10144;SDS011;5113;41.822;23.564;2022-11-04T16:00:00;152.87;;;64.47;;
10144;SDS011;5113;41.822;23.564;2022-11-04T16:03:15;71.57;;;34.10;;
10144;SDS011;5113;41.822;23.564;2022-11-04T16:06:35;101.17;;;47.83;;
10144;SDS011;5113;41.822;23.564;2022-11-04T16:09:43;53.57;;;28.30;;
10144;SDS011;5113;41.822;23.564;2022-11-04T16:12:53;37.77;;;17.50;;
10144;SDS011;5113;41.822;23.564;2022-11-04T16:16:05;55.10;;;27.53;;
10144;SDS011;5113;41.822;23.564;2022-11-04T16:19:19;51.47;;;25.37;;
10144;SDS011;5113;41.822;23.564;2022-11-04T16:22:29;61.27;;;25.73;;
10144;SDS011;5113;41.822;23.564;2022-11-04T16:25:37;235.40;;;81.43;;
10144;SDS011;5113;41.822;23.564;2022-11-04T16:28:43;85.87;;;36.57;;
10144;SDS011;5113;41.822;23.564;2022-11-04T16:32:06;67.73;;;31.47;;
10144;SDS011;5113;41.822;23.564;2022-11-04T16:35:19;95.87;;;39.47;;
10144;SDS011;5113;41.822;23.564;2022-11-04T16:38:29;93.90;;;42.47;;
10144;SDS011;5113;41.822;23.564;2022-11-04T16:41:36;87.57;;;39.77;;
10144;SDS011;5113;41.822;23.564;2022-11-04T16:44:47;184.53;;;77.27;;
10144;SDS011;5113;41.822;23.564;2022-11-04T16:47:55;104.50;;;48.73;;
10144;SDS011;5113;41.822;23.564;2022-11-04T16:51:02;108.53;;;49.37;;
10144;SDS011;5113;41.822;23.564;2022-11-04T16:54:10;119.67;;;49.57;;
10144;SDS011;5113;41.822;23.564;2022-11-04T16:57:16;118.40;;;50.53;;
10144;SDS011;5113;41.822;23.564;2022-11-04T17:00:23;134.03;;;70.67;;
10144;SDS011;5113;41.822;23.564;2022-11-04T17:03:31;86.40;;;46.23;;
10144;SDS011;5113;41.822;23.564;2022-11-04T17:06:37;73.87;;;35.17;;
10144;SDS011;5113;41.822;23.564;2022-11-04T17:09:45;91.60;;;42.20;;
10144;SDS011;5113;41.822;23.564;2022-11-04T17:12:51;109.70;;;45.17;;
10144;SDS011;5113;41.822;23.564;2022-11-04T17:15:58;169.23;;;65.17;;
10144;SDS011;5113;41.822;23.564;2022-11-04T17:19:07;105.00;;;41.80;;
10144;SDS011;5113;41.822;23.564;2022-11-04T17:22:15;93.13;;;40.97;;
10144;SDS011;5113;41.822;23.564;2022-11-04T17:25:23;87.27;;;37.90;;
10144;SDS011;5113;41.822;23.564;2022-11-04T17:28:31;90.70;;;38.90;;
10144;SDS011;5113;41.822;23.564;2022-11-04T17:31:37;150.67;;;62.50;;
10144;SDS011;5113;41.822;23.564;2022-11-04T17:34:43;192.83;;;80.23;;
10144;SDS011;5113;41.822;23.564;2022-11-04T17:37:50;150.77;;;67.57;;
10144;SDS011;5113;41.822;23.564;2022-11-04T17:40:59;166.27;;;70.87;;
10144;SDS011;5113;41.822;23.564;2022-11-04T17:44:37;162.23;;;66.23;;
10144;SDS011;5113;41.822;23.564;2022-11-04T17:47:43;200.47;;;88.67;;
10144;SDS011;5113;41.822;23.564;2022-11-04T17:50:49;152.50;;;70.20;;
10144;SDS011;5113;41.822;23.564;2022-11-04T17:53:55;140.17;;;61.23;;
10144;SDS011;5113;41.822;23.564;2022-11-04T17:57:03;144.20;;;56.73;;
10144;SDS011;5113;41.822;23.564;2022-11-04T18:00:11;123.83;;;52.70;;
10144;SDS011;5113;41.822;23.564;2022-11-04T18:03:18;118.73;;;52.73;;
10144;SDS011;5113;41.822;23.564;2022-11-04T18:06:25;129.67;;;54.70;;
10144;SDS011;5113;41.822;23.564;2022-11-04T18:09:35;122.83;;;53.87;;
10144;SDS011;5113;41.822;23.564;2022-11-04T18:12:44;102.37;;;47.60;;
10144;SDS011;5113;41.822;23.564;2022-11-04T18:15:50;105.03;;;41.40;;
10144;SDS011;5113;41.822;23.564;2022-11-04T18:18:56;94.93;;;44.43;;
10144;SDS011;5113;41.822;23.564;2022-11-04T18:22:03;110.93;;;51.40;;
10144;SDS011;5113;41.822;23.564;2022-11-04T18:25:09;172.13;;;72.27;;
10144;SDS011;5113;41.822;23.564;2022-11-04T18:28:18;234.60;;;116.90;;
10144;SDS011;5113;41.822;23.564;2022-11-04T18:31:25;169.57;;;76.57;;
10144;SDS011;5113;41.822;23.564;2022-11-04T18:34:33;152.13;;;72.70;;
10144;SDS011;5113;41.822;23.564;2022-11-04T18:37:39;119.83;;;51.67;;
10144;SDS011;5113;41.822;23.564;2022-11-04T18:40:52;115.00;;;49.07;;
10144;SDS011;5113;41.822;23.564;2022-11-04T18:43:59;77.70;;;36.17;;
10144;SDS011;5113;41.822;23.564;2022-11-04T18:47:06;61.63;;;31.87;;
10144;SDS011;5113;41.822;23.564;2022-11-04T18:50:12;69.07;;;25.30;;
10144;SDS011;5113;41.822;23.564;2022-11-04T18:53:18;61.73;;;28.23;;
10144;SDS011;5113;41.822;23.564;2022-11-04T18:56:30;56.53;;;25.63;;
10144;SDS011;5113;41.822;23.564;2022-11-04T18:59:38;69.90;;;30.43;;